createdAt,value
2023-03-07T00:00:15.169Z,29.42
2023-03-07T00:01:15.096Z,29.37
2023-03-07T00:02:15.026Z,29.38
2023-03-07T00:03:14.963Z,29.42
2023-03-07T00:04:14.894Z,29.39
2023-03-07T00:05:14.831Z,29.40
2023-03-07T00:06:14.739Z,29.38
2023-03-07T00:07:14.695Z,29.39
2023-03-07T00:08:14.597Z,29.40
2023-03-07T00:09:14.636Z,29.41
2023-03-07T00:10:14.490Z,29.40
2023-03-07T00:11:14.428Z,29.40
2023-03-07T00:12:14.357Z,29.38
2023-03-07T00:13:14.322Z,29.37
2023-03-07T00:14:14.270Z,29.35
2023-03-07T00:15:14.231Z,29.39
2023-03-07T00:16:14.208Z,29.37
2023-03-07T00:17:14.145Z,29.34
2023-03-07T00:18:14.086Z,29.34
2023-03-07T00:19:14.025Z,29.35
2023-03-07T00:20:13.964Z,29.36
2023-03-07T00:21:13.922Z,29.34
2023-03-07T00:22:14.699Z,29.32
2023-03-07T00:23:13.845Z,29.35
2023-03-07T00:24:13.815Z,29.32
2023-03-07T00:25:13.774Z,29.31
2023-03-07T00:26:13.764Z,29.30
2023-03-07T00:27:13.696Z,29.30
2023-03-07T00:28:13.621Z,29.29
2023-03-07T00:29:13.557Z,29.28
2023-03-07T00:30:13.476Z,29.29
2023-03-07T00:31:13.482Z,29.29
2023-03-07T00:32:13.371Z,29.28
2023-03-07T00:33:13.317Z,29.26
2023-03-07T00:34:13.282Z,29.28
2023-03-07T00:35:13.267Z,29.26
2023-03-07T00:36:13.199Z,29.24
2023-03-07T00:37:13.137Z,29.25
2023-03-07T00:38:13.075Z,29.25
2023-03-07T00:39:13.057Z,29.27
2023-03-07T00:40:12.997Z,29.26
2023-03-07T00:41:12.933Z,29.28
2023-03-07T00:42:12.862Z,29.26
2023-03-07T00:43:12.791Z,29.28
2023-03-07T00:44:12.719Z,29.26
2023-03-07T00:45:12.662Z,29.26
2023-03-07T00:46:12.598Z,29.25
2023-03-07T00:47:12.537Z,29.24
2023-03-07T00:48:12.476Z,29.22
2023-03-07T00:49:12.441Z,29.23
2023-03-07T00:50:12.405Z,29.22
2023-03-07T00:51:12.369Z,29.24
2023-03-07T00:52:12.340Z,29.22
2023-03-07T00:53:12.288Z,29.23
2023-03-07T00:54:12.243Z,29.26
2023-03-07T00:55:12.199Z,29.23
2023-03-07T00:56:12.158Z,29.23
2023-03-07T00:57:12.119Z,29.22
2023-03-07T00:58:12.082Z,29.22
2023-03-07T00:59:12.041Z,29.25
2023-03-07T01:00:11.992Z,29.22
2023-03-07T01:01:12.010Z,29.18
2023-03-07T01:02:11.896Z,29.18
2023-03-07T01:03:11.838Z,29.19
2023-03-07T01:04:11.815Z,29.21
2023-03-07T01:08:11.506Z,29.18
2023-03-07T01:09:11.432Z,29.18
2023-03-07T01:10:11.373Z,29.17
2023-03-07T03:17:03.684Z,28.70
2023-03-07T03:19:03.585Z,28.70
2023-03-07T03:20:03.538Z,28.69
2023-03-07T03:21:03.469Z,28.72
2023-03-07T03:22:03.397Z,28.68
2023-03-07T03:23:03.331Z,28.69
2023-03-07T03:24:03.261Z,28.67
2023-03-07T03:25:03.198Z,28.70
2023-03-07T03:26:03.145Z,28.71
2023-03-07T03:27:03.108Z,28.69
2023-03-07T03:28:03.061Z,28.68
2023-03-07T03:29:03.024Z,28.68
2023-03-07T03:30:02.980Z,28.67
2023-03-07T03:31:02.961Z,28.69
2023-03-07T03:32:02.951Z,28.66
2023-03-07T03:33:02.827Z,28.65
2023-03-07T03:34:02.756Z,28.67
2023-03-07T03:35:02.663Z,28.67
2023-03-07T03:36:02.645Z,28.64
2023-03-07T03:37:02.522Z,28.65
2023-03-07T03:38:02.479Z,28.64
2023-03-07T03:39:02.441Z,28.65
2023-03-07T03:40:02.388Z,28.64
2023-03-07T03:41:02.347Z,28.63
2023-03-07T03:42:02.304Z,28.60
2023-03-07T03:43:02.279Z,28.63
2023-03-07T03:44:02.245Z,28.60
2023-03-07T03:45:02.196Z,28.62
2023-03-07T03:46:02.142Z,28.62
2023-03-07T03:47:02.093Z,28.59
2023-03-07T03:48:02.013Z,28.60
2023-03-07T03:49:01.952Z,28.59
2023-03-07T03:56:01.505Z,28.57
2023-03-07T03:57:01.430Z,28.58
2023-03-07T03:58:01.370Z,28.57
2023-03-07T03:59:01.320Z,28.57
2023-03-07T05:17:56.967Z,28.02
2023-03-07T05:21:56.701Z,28.00
2023-03-07T05:22:56.632Z,28.00
2023-03-07T05:23:56.569Z,28.00
2023-03-07T05:24:56.489Z,28.00
2023-03-07T05:25:56.432Z,28.00
2023-03-07T05:26:56.402Z,27.99
2023-03-07T05:27:56.286Z,27.98
2023-03-07T05:28:56.223Z,27.98
2023-03-07T05:29:56.158Z,27.99
2023-03-07T05:30:56.109Z,27.97
2023-03-07T05:31:56.009Z,27.96
2023-03-07T05:32:55.940Z,27.98
2023-03-07T05:33:55.859Z,27.98
2023-03-07T05:34:55.801Z,27.97
2023-03-07T05:35:55.765Z,27.96
2023-03-07T05:36:55.668Z,27.95
2023-03-07T05:37:55.605Z,27.96
2023-03-07T05:38:55.539Z,27.97
2023-03-07T05:39:55.468Z,27.96
2023-03-07T05:40:55.404Z,27.96
2023-03-07T05:41:55.430Z,27.97
2023-03-07T05:42:55.253Z,27.95
2023-03-07T05:43:55.194Z,27.95
2023-03-07T05:44:55.119Z,27.96
2023-03-07T05:45:55.109Z,27.94
2023-03-07T05:46:54.975Z,27.94
2023-03-07T05:47:54.913Z,27.95
2023-03-07T05:48:54.846Z,27.92
2023-03-07T05:49:54.771Z,27.95
2023-03-07T06:21:52.459Z,28.11
2023-03-07T06:22:52.382Z,28.12
2023-03-07T06:23:52.326Z,28.05
2023-03-07T06:24:52.258Z,28.01
2023-03-07T06:25:52.188Z,28.00
2023-03-07T06:26:52.127Z,28.04
2023-03-07T06:27:52.049Z,28.11
2023-03-07T06:28:52.000Z,28.66
2023-03-07T06:29:51.939Z,28.63
2023-03-07T06:30:51.876Z,28.72
2023-03-07T06:31:51.779Z,28.81
2023-03-07T06:32:51.692Z,29.03
2023-03-07T06:33:51.627Z,29.21
2023-03-07T06:34:51.539Z,29.53
2023-03-07T06:35:51.546Z,29.66
2023-03-07T06:36:51.358Z,29.96
2023-03-07T06:37:52.017Z,30.26
2023-03-07T08:07:45.388Z,29.42
2023-03-07T08:08:45.324Z,29.48
2023-03-07T08:09:45.281Z,29.57
2023-03-07T08:10:45.244Z,29.72
2023-03-07T08:11:45.198Z,29.83
2023-03-07T08:12:45.127Z,29.98
2023-03-07T08:13:45.074Z,29.97
2023-03-07T08:14:45.013Z,30.03
2023-03-07T08:15:44.953Z,30.24
2023-03-07T08:16:44.892Z,30.26
2023-03-07T08:17:44.837Z,30.46
2023-03-07T08:18:44.772Z,30.65
2023-03-07T08:19:44.711Z,30.73
2023-03-07T08:20:44.640Z,30.78
2023-03-07T08:21:44.584Z,30.91
2023-03-07T08:22:44.500Z,31.09
2023-03-07T08:23:44.421Z,31.28
2023-03-07T08:24:44.348Z,31.43
2023-03-07T08:25:44.262Z,31.54
2023-03-07T08:26:44.181Z,31.71
2023-03-07T08:27:44.083Z,31.85
2023-03-07T08:28:43.997Z,31.98
2023-03-07T08:29:43.910Z,32.05
2023-03-07T08:30:43.809Z,32.19
2023-03-07T08:31:43.714Z,32.41
2023-03-07T08:32:43.662Z,32.56
2023-03-07T08:33:43.542Z,32.66
2023-03-07T08:34:43.454Z,33.17
2023-03-07T08:35:43.407Z,33.01
2023-03-07T08:36:43.239Z,33.22
2023-03-07T08:37:43.118Z,33.38
2023-03-07T08:38:43.098Z,33.42
2023-03-07T08:39:42.998Z,33.48
2023-03-07T08:40:42.863Z,33.50
2023-03-07T08:41:42.771Z,33.64
2023-03-07T08:42:42.700Z,33.71
2023-03-07T08:43:42.534Z,33.79
2023-03-07T08:44:42.473Z,33.90
2023-03-07T08:45:42.353Z,34.03
2023-03-07T08:46:42.271Z,34.14
2023-03-07T08:47:42.134Z,34.30
2023-03-07T08:48:41.998Z,34.46
2023-03-07T08:49:41.981Z,34.64
2023-03-07T08:50:41.947Z,34.84
2023-03-07T08:51:41.791Z,35.01
2023-03-07T08:52:41.696Z,35.11
2023-03-07T08:53:41.565Z,35.30
2023-03-07T08:54:41.487Z,35.49
2023-03-07T08:55:41.376Z,35.64
2023-03-07T09:46:36.658Z,27.31
2023-03-07T09:47:36.576Z,27.26
2023-03-07T09:48:36.489Z,27.26
2023-03-07T09:49:37.098Z,27.05
2023-03-07T09:50:36.305Z,27.08
2023-03-07T09:51:36.219Z,27.02
2023-03-07T09:52:36.137Z,26.98
2023-03-07T09:53:36.079Z,26.97
2023-03-07T09:54:36.023Z,26.87
2023-03-07T09:55:35.966Z,26.81
2023-03-07T09:56:35.914Z,26.62
2023-03-07T09:57:35.863Z,26.64
2023-03-07T09:58:35.834Z,26.62
2023-03-07T09:59:35.755Z,26.60
2023-03-07T10:00:35.706Z,26.42
2023-03-07T10:01:35.717Z,26.37
2023-03-07T10:02:35.610Z,26.42
2023-03-07T10:03:35.655Z,26.39
2023-03-07T10:04:35.532Z,26.42
2023-03-07T10:05:35.458Z,26.39
2023-03-07T10:06:35.562Z,26.06
2023-03-07T10:07:35.325Z,26.25
2023-03-07T10:08:35.260Z,26.30
2023-03-07T10:09:35.190Z,26.27
2023-03-07T10:10:35.128Z,26.36
2023-03-07T10:11:35.089Z,26.37
2023-03-07T10:12:34.969Z,26.29
2023-03-07T10:13:34.887Z,26.36
2023-03-07T10:14:34.866Z,26.44
2023-03-07T10:15:34.757Z,26.35
2023-03-07T10:16:34.701Z,26.17
2023-03-07T10:17:34.583Z,26.04
2023-03-07T10:18:34.496Z,26.07
2023-03-07T10:19:34.400Z,26.03
2023-03-07T10:20:34.317Z,26.05
2023-03-07T10:21:34.256Z,26.01
2023-03-07T10:22:34.157Z,25.98
2023-03-07T10:23:34.064Z,25.94
2023-03-07T10:24:34.000Z,25.94
2023-03-07T10:25:33.895Z,25.93
2023-03-07T10:26:33.831Z,25.93
2023-03-07T10:27:33.723Z,25.89
2023-03-07T10:28:33.639Z,25.91
2023-03-07T10:29:33.546Z,25.92
2023-03-07T10:30:33.449Z,25.92
2023-03-07T10:31:33.399Z,25.91
2023-03-07T10:32:33.307Z,25.95
2023-03-07T10:33:33.200Z,25.99
2023-03-07T10:34:33.159Z,25.96
2023-03-07T10:35:33.049Z,25.98
2023-03-07T10:36:32.953Z,26.01
2023-03-07T10:37:32.872Z,26.02
2023-03-07T10:38:32.783Z,26.03
2023-03-07T10:39:32.700Z,26.05
2023-03-07T10:40:32.613Z,26.08
2023-03-07T10:41:32.534Z,26.10
2023-03-07T10:42:32.459Z,26.10
2023-03-07T10:43:32.424Z,26.13
2023-03-07T10:44:32.328Z,26.15
2023-03-07T10:45:32.251Z,26.17
2023-03-07T10:46:32.299Z,26.20
2023-03-07T10:47:32.132Z,26.18
2023-03-07T10:48:32.078Z,26.21
2023-03-07T10:49:32.005Z,26.23
2023-03-07T10:50:31.933Z,26.24
2023-03-07T10:51:31.892Z,26.26
2023-03-07T10:52:31.817Z,26.25
2023-03-07T10:53:31.752Z,26.25
2023-03-07T10:54:31.684Z,26.29
2023-03-07T10:55:31.611Z,26.30
2023-03-07T10:56:31.554Z,26.32
2023-03-07T10:57:31.501Z,26.31
2023-03-07T10:58:31.438Z,26.31
2023-03-07T10:59:31.388Z,26.31
2023-03-07T11:00:31.343Z,26.31
2023-03-07T12:54:23.691Z,26.86
2023-03-07T12:55:23.579Z,26.86
2023-03-07T12:56:23.466Z,26.86
2023-03-07T12:57:25.110Z,26.87
2023-03-07T12:58:23.232Z,26.87
2023-03-07T12:59:23.125Z,26.89
2023-03-07T13:00:23.019Z,26.90
2023-03-07T13:01:22.948Z,26.89
2023-03-07T13:02:22.804Z,26.91
2023-03-07T13:03:22.685Z,26.90
2023-03-07T13:04:22.645Z,27.27
2023-03-07T13:05:22.454Z,27.31
2023-03-07T13:06:22.330Z,27.62
2023-03-07T13:07:22.222Z,27.75
2023-03-07T13:08:22.109Z,28.07
2023-03-07T13:09:21.980Z,28.27
2023-03-07T13:10:21.863Z,28.60
2023-03-07T13:11:22.715Z,28.79
2023-03-07T13:12:21.618Z,28.93
2023-03-07T13:13:21.494Z,29.04
2023-03-07T13:14:21.378Z,29.28
2023-03-07T13:59:15.983Z,34.85
2023-03-07T14:00:15.871Z,34.99
2023-03-07T14:01:15.816Z,35.21
2023-03-07T14:02:15.658Z,35.30
2023-03-07T14:03:15.594Z,35.42
2023-03-07T14:04:15.502Z,35.43
2023-03-07T14:05:15.461Z,35.62
2023-03-07T14:06:15.360Z,35.75
2023-03-07T14:07:15.297Z,35.78
2023-03-07T14:08:15.175Z,35.89
2023-03-07T14:09:15.158Z,36.02
2023-03-07T14:10:23.421Z,36.06
2023-03-07T14:11:15.869Z,36.19
2023-03-07T14:12:14.741Z,36.31
2023-03-07T14:13:14.632Z,36.42
2023-03-07T14:14:15.613Z,36.51
2023-03-07T14:15:14.374Z,36.69
2023-03-07T14:16:14.300Z,36.71
2023-03-07T14:17:14.138Z,36.91
2023-03-07T14:18:14.029Z,37.05
2023-03-07T14:19:13.899Z,37.25
2023-03-07T14:20:13.839Z,37.26
2023-03-07T14:21:13.765Z,37.44
2023-03-07T14:22:13.718Z,37.59
2023-03-07T14:23:13.662Z,37.62
2023-03-07T14:24:13.562Z,37.73
2023-03-07T14:25:13.479Z,37.75
2023-03-07T14:26:13.398Z,37.84
2023-03-07T14:27:13.333Z,37.72
2023-03-07T14:28:13.287Z,37.59
2023-03-07T14:29:13.247Z,37.43
2023-03-07T14:30:13.186Z,37.31
2023-03-07T14:31:13.181Z,37.16
2023-03-07T14:32:13.123Z,37.07
2023-03-07T14:33:13.020Z,36.96
2023-03-07T14:34:12.947Z,36.88
2023-03-07T14:35:12.853Z,36.79
2023-03-07T14:36:12.825Z,36.79
2023-03-07T14:37:12.641Z,33.71
2023-03-07T14:38:12.541Z,31.52
2023-03-07T14:39:12.428Z,30.70
2023-03-07T14:40:12.334Z,31.41
2023-03-07T14:41:12.239Z,30.99
2023-03-07T14:42:12.157Z,30.00
2023-03-07T14:43:12.095Z,29.98
2023-03-07T14:44:12.011Z,31.70
2023-03-07T14:45:11.953Z,29.90
2023-03-07T14:46:11.945Z,30.05
2023-03-07T14:47:11.825Z,30.54
2023-03-07T14:48:11.842Z,32.95
2023-03-07T14:49:11.694Z,33.18
2023-03-07T14:50:11.625Z,33.14
2023-03-07T14:51:11.569Z,33.13
2023-03-07T14:52:14.445Z,33.06
2023-03-07T14:53:12.382Z,32.87
2023-03-07T16:42:04.015Z,33.03
2023-03-07T16:43:03.907Z,33.03
2023-03-07T16:44:03.821Z,33.06
2023-03-07T16:45:03.709Z,33.05
2023-03-07T16:46:03.647Z,33.07
2023-03-07T16:47:03.502Z,33.08
2023-03-07T16:48:03.408Z,33.09
2023-03-07T16:49:03.301Z,33.13
2023-03-07T16:50:03.203Z,33.10
2023-03-07T16:51:03.098Z,33.11
2023-03-07T16:52:06.523Z,33.13
2023-03-07T16:53:02.915Z,33.12
2023-03-07T16:54:02.781Z,33.12
2023-03-07T16:55:02.657Z,33.14
2023-03-07T16:56:02.547Z,33.16
2023-03-07T16:57:02.486Z,33.16
2023-03-07T16:58:02.319Z,33.15
2023-03-07T16:59:02.216Z,33.15
2023-03-07T17:00:02.103Z,33.17
2023-03-07T17:01:02.117Z,33.17
2023-03-07T17:02:01.995Z,33.15
2023-03-07T17:03:01.751Z,33.18
2023-03-07T17:04:01.644Z,33.19
2023-03-07T17:05:01.533Z,33.20
2023-03-07T17:06:01.423Z,33.17
2023-03-07T17:07:05.091Z,33.21
2023-03-07T17:08:01.201Z,33.23
2023-03-07T17:09:01.113Z,33.22
2023-03-07T17:10:01.035Z,33.23
2023-03-07T17:11:00.891Z,33.22
2023-03-07T17:12:00.783Z,33.24
2023-03-07T17:13:00.686Z,33.23
2023-03-07T17:14:00.569Z,33.24
2023-03-07T17:15:00.485Z,33.24
2023-03-07T17:16:00.426Z,33.26
2023-03-07T17:17:00.237Z,33.29
2023-03-07T17:18:00.157Z,33.28
2023-03-07T17:19:00.025Z,33.23
2023-03-07T17:19:59.981Z,33.28
2023-03-07T17:20:59.804Z,33.28
2023-03-07T17:21:59.708Z,33.29
2023-03-07T17:22:59.591Z,33.27
2023-03-07T17:23:59.494Z,33.29
2023-03-07T17:24:59.392Z,33.30
2023-03-07T17:25:59.288Z,33.34
2023-03-07T17:26:59.173Z,33.32
2023-03-07T17:27:59.075Z,33.30
2023-03-07T17:28:58.958Z,33.34
2023-03-07T17:29:58.947Z,33.29
2023-03-07T17:30:58.823Z,33.30
2023-03-07T17:31:58.632Z,33.33
2023-03-07T17:32:58.528Z,33.31
2023-03-07T17:33:58.409Z,33.32
2023-03-07T17:34:58.305Z,33.30
2023-03-07T17:35:58.272Z,33.36
2023-03-07T17:36:58.079Z,33.34
2023-03-07T17:37:57.975Z,33.34
2023-03-07T17:38:57.875Z,33.36
2023-03-07T17:39:57.794Z,33.37
2023-03-07T17:40:57.664Z,33.36
2023-03-07T17:41:57.540Z,33.38
2023-03-07T17:42:57.526Z,33.36
2023-03-07T17:43:57.333Z,33.39
2023-03-07T17:44:57.222Z,33.36
2023-03-07T17:45:57.178Z,33.40
2023-03-07T17:46:57.000Z,33.35
2023-03-07T17:47:56.894Z,33.38
2023-03-07T17:48:56.804Z,33.39
2023-03-07T17:49:56.686Z,33.40
2023-03-07T17:50:56.594Z,33.37
2023-03-07T17:51:56.499Z,33.39
2023-03-07T17:52:56.387Z,33.39
2023-03-07T17:53:56.285Z,33.39
2023-03-07T17:54:56.257Z,33.40
2023-03-07T17:55:56.069Z,33.40
2023-03-07T17:56:55.964Z,33.39
2023-03-07T17:57:55.847Z,33.42
2023-03-07T17:58:55.751Z,33.41
2023-03-07T17:59:55.636Z,33.35
2023-03-07T18:00:55.518Z,33.38
2023-03-07T18:01:55.454Z,33.42
2023-03-07T18:02:55.359Z,33.43
2023-03-07T18:03:55.187Z,33.45
2023-03-07T18:04:55.073Z,33.43
2023-03-07T18:05:54.955Z,33.41
2023-03-07T18:06:54.850Z,33.38
2023-03-07T18:07:54.739Z,33.40
2023-03-07T18:08:54.612Z,33.39
2023-03-07T18:10:07.302Z,33.39
2023-03-07T18:10:55.426Z,33.42
2023-03-07T18:11:54.319Z,33.37
2023-03-07T18:12:54.207Z,33.39
2023-03-07T18:13:54.096Z,33.40
2023-03-07T18:15:53.909Z,33.39
2023-03-07T18:16:53.795Z,33.39
2023-03-07T18:17:53.672Z,33.41
2023-03-07T18:18:59.403Z,33.41
2023-03-07T18:19:54.443Z,33.42
2023-03-07T18:20:53.337Z,33.44
2023-03-07T18:21:53.259Z,33.42
2023-03-07T18:22:53.133Z,33.39
2023-03-07T18:23:53.032Z,33.42
2023-03-07T18:24:52.910Z,33.45
2023-03-07T18:25:52.801Z,33.44
2023-03-07T18:35:51.874Z,33.44
2023-03-07T18:36:51.821Z,33.43
2023-03-07T18:37:51.734Z,33.41
2023-03-07T18:38:51.668Z,33.41
2023-03-07T18:39:51.608Z,33.42
2023-03-07T18:40:51.542Z,33.43
2023-03-07T18:41:51.467Z,33.42
2023-03-07T18:42:51.449Z,33.43
2023-03-07T18:43:51.339Z,33.41
2023-03-07T20:13:45.839Z,33.48
2023-03-07T20:14:45.776Z,33.52
2023-03-07T20:16:45.510Z,33.54
2023-03-07T20:17:45.412Z,33.50
2023-03-07T20:18:45.312Z,33.52
2023-03-07T20:19:45.203Z,33.50
2023-03-07T20:20:45.108Z,33.49
2023-03-07T20:21:45.058Z,33.51
2023-03-07T20:22:45.007Z,33.49
2023-03-07T20:23:44.961Z,33.54
2023-03-07T20:24:44.917Z,33.54
2023-03-07T20:25:44.864Z,33.51
2023-03-07T20:26:44.828Z,33.50
2023-03-07T20:27:44.778Z,33.53
2023-03-07T20:28:44.745Z,33.51
2023-03-07T20:29:44.688Z,33.50
2023-03-07T20:30:44.665Z,33.50
2023-03-07T20:31:44.603Z,33.49
2023-03-07T20:32:44.562Z,33.50
2023-03-07T20:33:44.552Z,33.53
2023-03-07T20:34:44.494Z,33.52
2023-03-07T20:35:44.428Z,33.54
2023-03-07T20:36:44.374Z,33.53
2023-03-07T20:37:44.331Z,33.53
2023-03-07T20:38:44.311Z,33.53
2023-03-07T20:39:44.281Z,33.53
2023-03-07T20:40:44.202Z,33.51
2023-03-07T20:41:44.147Z,33.54
2023-03-07T20:42:44.130Z,33.53
2023-03-07T20:43:44.067Z,33.56
2023-03-07T20:44:44.032Z,33.52
2023-03-07T20:45:43.982Z,33.51
2023-03-07T20:46:44.030Z,33.51
2023-03-07T20:47:43.894Z,33.49
2023-03-07T20:48:43.849Z,33.49
2023-03-07T20:49:43.819Z,33.54
2023-03-07T20:50:43.763Z,33.53
2023-03-07T20:51:43.708Z,33.53
2023-03-07T20:52:43.663Z,33.53
2023-03-07T20:53:43.609Z,33.48
2023-03-07T20:54:43.569Z,33.52
2023-03-07T20:55:43.530Z,33.53
2023-03-07T20:56:43.490Z,33.58
2023-03-07T20:57:43.441Z,33.57
2023-03-07T20:58:43.402Z,33.57
2023-03-07T20:59:43.349Z,33.55
2023-03-07T21:00:43.316Z,33.54
2023-03-07T21:01:43.344Z,33.54
2023-03-07T21:02:43.450Z,33.58
2023-03-07T21:03:43.212Z,33.57
2023-03-07T21:04:43.131Z,33.52
2023-03-07T21:05:43.082Z,33.53
2023-03-07T21:06:43.037Z,33.51
2023-03-07T21:07:42.969Z,33.56
2023-03-07T21:08:42.926Z,33.54
2023-03-07T21:09:42.878Z,33.51
2023-03-07T21:10:42.829Z,33.53
2023-03-07T21:11:42.772Z,33.54
2023-03-07T21:12:42.804Z,33.54
2023-03-07T21:13:42.677Z,33.56
2023-03-07T21:14:42.625Z,33.56
2023-03-07T21:15:42.572Z,33.53
2023-03-07T21:16:42.527Z,33.54
2023-03-07T21:17:42.476Z,33.53
2023-03-07T21:18:42.421Z,33.55
2023-03-07T21:19:42.380Z,33.54
2023-03-07T21:20:42.335Z,33.54
2023-03-07T21:21:42.324Z,33.51
2023-03-07T21:22:42.249Z,33.55
2023-03-07T21:23:42.193Z,33.55
2023-03-07T21:24:42.140Z,33.55
2023-03-07T21:25:42.102Z,33.54
2023-03-07T21:26:42.113Z,33.60
2023-03-07T21:27:42.007Z,33.59
2023-03-07T21:28:41.974Z,33.56
2023-03-07T21:29:41.922Z,33.58
2023-03-07T21:30:41.864Z,33.56
2023-03-07T21:31:41.898Z,33.55
2023-03-07T21:32:41.814Z,33.57
2023-03-07T21:33:41.706Z,33.55
2023-03-07T21:34:41.655Z,33.58
2023-03-07T21:35:41.650Z,33.57
2023-03-07T21:36:41.568Z,33.56
2023-03-07T21:37:41.520Z,33.55
2023-03-07T21:38:41.476Z,33.54
2023-03-07T21:39:41.427Z,33.57
2023-03-07T21:40:41.411Z,33.54
2023-03-07T21:41:41.362Z,33.58
